Time;durP1;ratioP1;P1;durP2;ratioP2;P2;SDS_P1;SDS_P2;PMS_P1;PMS_P2;Temp;Humidity;BMP_temperature;BMP_pressure;BME280_temperature;BME280_humidity;BME280_pressure;Samples;Min_cycle;Max_cycle;Signal;HPM_P1;HPM_P2
2021/09/20 00:00:06;;;;;;;5.53;4.15;;;16.60;99.90;;;;;;4995808;28;20184;-80
2021/09/20 00:02:31;;;;;;;5.05;4.65;;;16.90;99.90;;;;;;4995740;28;20165;-80
2021/09/20 00:04:57;;;;;;;6.95;4.70;;;17.00;99.90;;;;;;4995580;28;20176;-80
2021/09/20 00:07:22;;;;;;;13.57;8.80;;;17.10;99.90;;;;;;4995423;28;20195;-80
2021/09/20 00:09:48;;;;;;;8.07;5.30;;;17.20;99.90;;;;;;4995603;28;20185;-79
2021/09/20 00:12:14;;;;;;;5.65;5.22;;;17.20;99.90;;;;;;4995413;28;20539;-80
2021/09/20 00:14:40;;;;;;;5.50;4.88;;;17.20;99.90;;;;;;4995315;28;20236;-80
2021/09/20 00:17:05;;;;;;;5.22;4.78;;;17.20;99.90;;;;;;4995520;28;20168;-80
2021/09/20 00:19:31;;;;;;;5.38;4.88;;;17.40;99.90;;;;;;4994514;28;20181;-80
2021/09/20 00:21:57;;;;;;;7.68;4.68;;;17.60;99.90;;;;;;4995314;28;20653;-80
2021/09/20 00:24:22;;;;;;;4.57;4.20;;;17.40;99.90;;;;;;4995517;28;20279;-80
2021/09/20 00:26:48;;;;;;;6.45;4.38;;;17.40;99.90;;;;;;4993939;28;20625;-80
2021/09/20 00:29:14;;;;;;;10.93;5.28;;;17.50;99.90;;;;;;4995457;28;20181;-80
2021/09/20 00:31:39;;;;;;;4.40;4.03;;;17.60;99.90;;;;;;4995157;28;20181;-80
2021/09/20 00:34:05;;;;;;;5.85;4.10;;;17.50;99.90;;;;;;4993693;28;20213;-80
2021/09/20 00:36:31;;;;;;;4.90;4.50;;;17.30;99.90;;;;;;4995220;28;20165;-80
2021/09/20 00:38:56;;;;;;;5.47;4.97;;;17.20;99.90;;;;;;4995412;28;20180;-80
2021/09/20 00:41:22;;;;;;;5.28;4.40;;;17.30;99.90;;;;;;4994893;28;20275;-80
2021/09/20 00:43:47;;;;;;;5.57;4.88;;;17.50;99.90;;;;;;4993929;28;20199;-80
2021/09/20 00:46:14;;;;;;;4.90;4.50;;;17.70;99.90;;;;;;4993928;28;20537;-81
2021/09/20 00:48:40;;;;;;;8.55;4.32;;;17.60;99.90;;;;;;4995308;28;20300;-80
2021/09/20 00:51:06;;;;;;;5.00;4.50;;;17.40;99.90;;;;;;4995138;28;20268;-80
2021/09/20 00:53:32;;;;;;;4.82;4.43;;;17.30;99.90;;;;;;4993637;28;20197;-80
2021/09/20 00:55:59;;;;;;;5.43;4.93;;;17.20;99.90;;;;;;4995015;28;20184;-80
2021/09/20 00:58:25;;;;;;;5.47;4.93;;;17.10;99.90;;;;;;4994925;28;20172;-80
2021/09/20 01:00:50;;;;;;;4.70;4.30;;;17.10;99.90;;;;;;4994529;28;20193;-80
2021/09/20 01:03:16;;;;;;;5.80;5.30;;;17.10;99.90;;;;;;4993680;28;20683;-80
2021/09/20 01:05:42;;;;;;;6.60;6.00;;;17.10;99.90;;;;;;4994683;28;20180;-80
2021/09/20 01:08:07;;;;;;;8.50;5.18;;;17.00;99.90;;;;;;4994797;28;20566;-80
2021/09/20 01:10:33;;;;;;;6.13;5.53;;;17.10;99.90;;;;;;4993192;28;20276;-80
2021/09/20 01:12:59;;;;;;;5.10;4.65;;;17.00;99.90;;;;;;4994377;28;20176;-80
2021/09/20 01:15:25;;;;;;;5.40;4.90;;;17.20;99.90;;;;;;4994619;28;20213;-80
2021/09/20 01:17:50;;;;;;;5.82;5.25;;;17.10;99.90;;;;;;4994297;28;20161;-80
2021/09/20 01:20:16;;;;;;;9.00;5.40;;;16.90;99.90;;;;;;4993429;28;20268;-80
2021/09/20 01:22:45;;;;;;;18.48;6.00;;;17.00;99.90;;;;;;4993147;28;20165;-81
2021/09/20 01:25:13;;;;;;;6.63;6.03;;;16.90;99.90;;;;;;4993746;28;20212;-80
2021/09/20 01:27:39;;;;;;;5.47;5.00;;;16.80;99.90;;;;;;4994449;28;20221;-80
2021/09/20 01:30:06;;;;;;;5.97;4.63;;;16.80;99.90;;;;;;4993821;28;20177;-79
2021/09/20 01:32:31;;;;;;;5.93;5.32;;;16.70;99.90;;;;;;4992889;28;20193;-79
2021/09/20 01:34:57;;;;;;;12.20;5.68;;;16.80;99.90;;;;;;4994076;28;20300;-81
2021/09/20 01:37:23;;;;;;;6.95;5.43;;;17.00;99.90;;;;;;4994000;28;20172;-81
2021/09/20 01:39:48;;;;;;;6.75;5.22;;;17.20;99.90;;;;;;4992701;28;20177;-81
2021/09/20 01:42:14;;;;;;;6.63;5.50;;;17.10;99.90;;;;;;4992699;28;20675;-81
2021/09/20 01:44:40;;;;;;;5.75;5.25;;;17.10;99.90;;;;;;4993827;28;20176;-81
2021/09/20 01:47:05;;;;;;;7.65;5.72;;;17.00;99.90;;;;;;4992497;28;20176;-81
2021/09/20 01:49:31;;;;;;;6.32;5.53;;;16.90;99.90;;;;;;4993983;28;20175;-81
2021/09/20 01:51:57;;;;;;;4.72;4.30;;;16.80;99.90;;;;;;4993676;28;20181;-81
2021/09/20 01:54:24;;;;;;;10.05;6.05;;;16.70;99.90;;;;;;4993514;28;20208;-81
2021/09/20 01:56:49;;;;;;;5.50;5.00;;;16.80;99.90;;;;;;4993622;28;20169;-81
2021/09/20 01:59:15;;;;;;;7.38;5.28;;;16.90;99.90;;;;;;4993937;28;20177;-80
2021/09/20 02:01:40;;;;;;;5.75;5.25;;;17.00;99.90;;;;;;4992094;28;20185;-81
2021/09/20 02:04:06;;;;;;;6.18;5.20;;;17.00;99.90;;;;;;4993494;28;20200;-81
2021/09/20 02:06:32;;;;;;;6.30;5.40;;;17.10;99.90;;;;;;4993546;28;20169;-81
2021/09/20 02:08:57;;;;;;;6.72;5.78;;;17.20;99.90;;;;;;4992101;28;20180;-81
2021/09/20 02:11:24;;;;;;;11.60;6.53;;;17.10;99.90;;;;;;4992079;28;20564;-81
2021/09/20 02:13:51;;;;;;;6.00;5.45;;;17.00;99.90;;;;;;4993108;28;20284;-81
2021/09/20 02:16:18;;;;;;;6.45;5.85;;;17.00;99.90;;;;;;4991971;28;20204;-81
2021/09/20 02:18:44;;;;;;;6.93;6.18;;;17.00;99.90;;;;;;4993576;28;20169;-81
2021/09/20 02:21:11;;;;;;;6.18;5.63;;;17.00;99.90;;;;;;4991860;28;20193;-80
2021/09/20 02:23:37;;;;;;;10.38;5.22;;;17.20;99.90;;;;;;4993629;28;20177;-81
2021/09/20 02:26:04;;;;;;;7.43;6.03;;;17.40;99.90;;;;;;4993292;28;20204;-81
2021/09/20 02:28:30;;;;;;;8.13;5.43;;;17.30;99.90;;;;;;4993350;28;20178;-82
2021/09/20 02:30:57;;;;;;;6.97;6.20;;;16.90;99.90;;;;;;4993355;28;20181;-81
2021/09/20 02:33:23;;;;;;;7.38;6.63;;;16.60;99.90;;;;;;4993176;28;20695;-81
2021/09/20 02:35:48;;;;;;;7.18;5.68;;;16.60;99.90;;;;;;4993225;28;20173;-81
2021/09/20 02:38:14;;;;;;;5.80;5.20;;;16.50;99.90;;;;;;4993203;28;20223;-80
2021/09/20 02:40:40;;;;;;;9.60;6.25;;;16.30;99.90;;;;;;4992653;28;20185;-82
2021/09/20 02:43:06;;;;;;;8.52;6.18;;;16.30;99.90;;;;;;4990988;28;20256;-81
2021/09/20 02:45:32;;;;;;;6.35;5.78;;;16.30;99.90;;;;;;4992581;28;20661;-81
2021/09/20 02:47:58;;;;;;;6.93;6.32;;;16.40;99.90;;;;;;4992850;28;20248;-81
2021/09/20 02:50:24;;;;;;;6.72;6.07;;;16.40;99.90;;;;;;4992920;28;20360;-81
2021/09/20 02:52:49;;;;;;;8.55;6.10;;;16.30;99.90;;;;;;4992742;28;20688;-82
2021/09/20 02:55:15;;;;;;;8.13;5.75;;;16.20;99.90;;;;;;4993032;28;20221;-81
2021/09/20 02:57:41;;;;;;;6.43;5.75;;;16.10;99.90;;;;;;4991865;28;20220;-81
2021/09/20 03:00:09;;;;;;;12.77;6.35;;;16.10;99.90;;;;;;4992732;28;20165;-80
2021/09/20 03:02:35;;;;;;;7.00;6.28;;;16.10;99.90;;;;;;4991506;28;20173;-80
2021/09/20 03:05:01;;;;;;;7.22;6.53;;;16.00;99.90;;;;;;4991321;28;20645;-81
2021/09/20 03:07:27;;;;;;;10.23;6.85;;;15.90;99.90;;;;;;4992710;28;20176;-81
2021/09/20 03:09:52;;;;;;;7.15;6.40;;;15.90;99.90;;;;;;4992864;28;20184;-81
2021/09/20 03:12:18;;;;;;;7.35;6.57;;;15.90;99.90;;;;;;4992386;28;20516;-81
2021/09/20 03:14:43;;;;;;;7.65;6.90;;;16.10;99.90;;;;;;4992326;28;20251;-81
2021/09/20 03:17:09;;;;;;;10.02;7.18;;;16.20;99.90;;;;;;4992571;28;20257;-81
2021/09/20 03:19:35;;;;;;;6.82;6.22;;;16.40;99.90;;;;;;4992776;28;20204;-82
2021/09/20 03:22:01;;;;;;;7.30;6.38;;;16.10;99.90;;;;;;4992667;28;20204;-81
2021/09/20 03:24:26;;;;;;;7.97;7.18;;;16.10;99.90;;;;;;4992696;28;20611;-81
2021/09/20 03:26:52;;;;;;;7.78;6.03;;;15.80;99.90;;;;;;4992627;28;20169;-81
2021/09/20 03:29:20;;;;;;;7.78;6.07;;;15.80;99.90;;;;;;4991600;28;20177;-81
2021/09/20 03:31:45;;;;;;;8.32;6.30;;;15.70;99.90;;;;;;4993269;28;20181;-81
2021/09/20 03:34:11;;;;;;;7.55;6.90;;;15.70;99.90;;;;;;4991832;28;20205;-81
2021/09/20 03:36:37;;;;;;;7.90;7.03;;;15.70;99.90;;;;;;4992890;28;20652;-81
2021/09/20 03:39:03;;;;;;;9.77;7.22;;;16.00;99.90;;;;;;4992602;28;20169;-81
2021/09/20 03:41:29;;;;;;;7.50;6.10;;;16.10;99.90;;;;;;4991130;28;20193;-81
2021/09/20 03:43:54;;;;;;;8.52;6.50;;;15.80;99.90;;;;;;4992253;28;20169;-81
2021/09/20 03:46:20;;;;;;;8.25;7.45;;;15.60;99.90;;;;;;4992549;28;20525;-81
2021/09/20 03:48:46;;;;;;;8.30;6.35;;;15.60;99.90;;;;;;4992550;28;20630;-80
2021/09/20 03:51:11;;;;;;;14.52;8.63;;;15.80;99.90;;;;;;4992590;28;20522;-81
2021/09/20 03:53:37;;;;;;;13.65;6.95;;;15.80;99.90;;;;;;4994643;28;20371;-81
2021/09/20 03:56:04;;;;;;;10.10;7.50;;;15.70;99.90;;;;;;4996234;28;20177;-81
2021/09/20 03:58:29;;;;;;;9.00;7.15;;;15.60;99.90;;;;;;4995431;28;20173;-80
2021/09/20 04:00:55;;;;;;;10.43;6.88;;;15.60;99.90;;;;;;4997111;28;20552;-80
2021/09/20 04:03:21;;;;;;;14.18;7.10;;;15.70;99.90;;;;;;4996934;28;20483;-80
2021/09/20 04:05:46;;;;;;;12.50;7.40;;;15.60;99.90;;;;;;4995526;28;20288;-80
2021/09/20 04:08:15;;;;;;;7.70;6.82;;;15.60;99.90;;;;;;4999007;28;20176;-81
2021/09/20 04:10:42;;;;;;;9.80;6.38;;;15.60;99.90;;;;;;4998981;28;20203;-79
2021/09/20 04:13:08;;;;;;;13.15;8.15;;;15.80;99.90;;;;;;4997468;28;20210;-79
2021/09/20 04:15:35;;;;;;;8.63;7.32;;;15.60;99.90;;;;;;4999984;28;20214;-80
2021/09/20 04:18:01;;;;;;;7.85;7.03;;;15.50;99.90;;;;;;4998544;28;20227;-80
2021/09/20 04:20:27;;;;;;;7.80;7.10;;;15.60;99.90;;;;;;4994295;28;20657;-79
2021/09/20 04:25:24;;;;;;;11.38;6.72;;;15.50;99.90;;;;;;5011322;28;20632;-81
2021/09/20 04:27:50;;;;;;;9.70;7.47;;;15.60;99.90;;;;;;5013743;28;20172;-82
2021/09/20 04:30:15;;;;;;;7.80;6.22;;;15.50;99.90;;;;;;5013999;28;20179;-83
2021/09/20 04:32:41;;;;;;;8.07;7.25;;;15.20;99.90;;;;;;5013506;28;20259;-82
2021/09/20 04:35:08;;;;;;;6.78;6.07;;;15.00;99.90;;;;;;5018880;28;20204;-82
2021/09/20 04:37:34;;;;;;;10.15;6.93;;;15.00;99.90;;;;;;5026342;28;20532;-82
2021/09/20 04:40:00;;;;;;;12.90;7.68;;;15.10;99.90;;;;;;5014266;28;20177;-81
2021/09/20 04:42:26;;;;;;;9.68;8.20;;;15.10;99.90;;;;;;5013882;28;20191;-86
2021/09/20 04:44:51;;;;;;;8.38;6.68;;;15.20;99.90;;;;;;5014019;28;20587;-82
2021/09/20 04:47:17;;;;;;;7.88;7.13;;;15.10;99.90;;;;;;5015195;28;20531;-84
2021/09/20 04:49:44;;;;;;;8.35;7.15;;;15.20;99.90;;;;;;5015838;28;20226;-82
2021/09/20 04:52:10;;;;;;;7.82;7.00;;;15.10;99.90;;;;;;5022626;28;20200;-81
2021/09/20 04:54:36;;;;;;;8.43;6.78;;;15.00;99.90;;;;;;5018442;28;20212;-82
2021/09/20 04:57:02;;;;;;;12.13;7.05;;;14.80;99.90;;;;;;5018237;28;20203;-82
2021/09/20 04:59:28;;;;;;;10.15;6.65;;;15.00;99.90;;;;;;5016964;28;20528;-83
2021/09/20 05:01:53;;;;;;;6.65;6.03;;;14.90;99.90;;;;;;5017129;28;20189;-81
2021/09/20 05:04:19;;;;;;;9.10;7.70;;;14.70;99.90;;;;;;5016374;28;20921;-83
2021/09/20 05:06:45;;;;;;;10.25;6.90;;;14.60;99.90;;;;;;5017980;28;20153;-83
2021/09/20 05:09:10;;;;;;;8.02;6.93;;;14.60;99.90;;;;;;5017783;28;20170;-82
2021/09/20 05:11:37;;;;;;;10.13;6.45;;;14.50;99.90;;;;;;5017755;28;20556;-89
2021/09/20 05:14:03;;;;;;;11.18;6.70;;;14.60;99.90;;;;;;5018196;28;20228;-81
2021/09/20 05:16:29;;;;;;;16.73;7.38;;;14.60;99.90;;;;;;5006139;28;20253;-81
2021/09/20 05:18:55;;;;;;;12.65;7.50;;;14.40;99.90;;;;;;5030148;28;20199;-83
2021/09/20 05:21:21;;;;;;;9.18;7.10;;;14.40;99.90;;;;;;5033161;28;20181;-81
2021/09/20 05:23:47;;;;;;;10.00;6.70;;;14.30;99.90;;;;;;5029788;28;20192;-81
2021/09/20 05:26:14;;;;;;;18.58;7.20;;;14.30;99.90;;;;;;5024822;28;20171;-83
2021/09/20 05:28:40;;;;;;;13.43;8.13;;;14.30;99.90;;;;;;5015128;28;20651;-81
2021/09/20 05:31:07;;;;;;;13.00;6.78;;;14.40;99.90;;;;;;5014364;28;20188;-81
2021/09/20 05:33:34;;;;;;;13.45;7.78;;;14.50;99.90;;;;;;5015206;28;20165;-81
2021/09/20 05:36:02;;;;;;;7.47;6.45;;;14.50;99.90;;;;;;5013725;28;20738;-81
2021/09/20 05:38:27;;;;;;;9.82;7.72;;;14.60;99.90;;;;;;5013369;28;20215;-84
2021/09/20 05:40:53;;;;;;;13.10;7.03;;;14.50;99.90;;;;;;5012576;28;20192;-81
2021/09/20 05:43:18;;;;;;;8.10;7.32;;;14.50;99.90;;;;;;5012355;28;20244;-83
2021/09/20 05:45:45;;;;;;;12.75;8.38;;;14.50;99.90;;;;;;5012239;28;20168;-83
2021/09/20 05:48:11;;;;;;;17.40;7.22;;;14.50;99.90;;;;;;5012822;28;20540;-80
2021/09/20 05:50:36;;;;;;;18.40;7.10;;;14.40;99.90;;;;;;5014031;28;20195;-81
2021/09/20 05:53:02;;;;;;;9.00;6.95;;;14.30;99.90;;;;;;5013881;28;20168;-81
2021/09/20 05:55:28;;;;;;;13.10;7.40;;;14.30;99.90;;;;;;5012336;28;20219;-80
2021/09/20 05:57:54;;;;;;;10.18;8.38;;;14.50;99.90;;;;;;5013544;28;20157;-81
2021/09/20 06:00:20;;;;;;;13.88;8.57;;;14.60;99.90;;;;;;5013508;28;20203;-79
2021/09/20 06:02:46;;;;;;;7.55;6.75;;;14.60;99.90;;;;;;5012434;28;20168;-80
2021/09/20 06:05:13;;;;;;;9.00;7.55;;;14.60;99.90;;;;;;5012135;28;20176;-81
2021/09/20 06:07:39;;;;;;;13.10;7.80;;;14.50;99.90;;;;;;5012003;28;20214;-80
2021/09/20 06:10:06;;;;;;;8.98;8.02;;;14.50;99.90;;;;;;5013349;28;20172;-81
2021/09/20 06:12:33;;;;;;;11.60;7.90;;;14.60;99.90;;;;;;5013174;28;20188;-81
2021/09/20 06:15:00;;;;;;;16.35;7.63;;;14.60;99.90;;;;;;5016943;28;20234;-79
2021/09/20 06:17:26;;;;;;;16.58;8.27;;;14.70;99.90;;;;;;5018464;28;20262;-82
2021/09/20 06:19:52;;;;;;;10.82;7.90;;;14.60;99.90;;;;;;5019434;28;20164;-81
2021/09/20 06:22:18;;;;;;;8.93;8.00;;;14.60;99.90;;;;;;5017300;28;20189;-79
2021/09/20 06:24:45;;;;;;;15.98;7.97;;;14.70;99.90;;;;;;5019696;28;20191;-82
2021/09/20 06:27:11;;;;;;;11.40;9.02;;;14.60;99.90;;;;;;5024778;28;20238;-87
2021/09/20 06:29:37;;;;;;;15.77;9.30;;;14.70;99.90;;;;;;5019271;28;20169;-86
2021/09/20 06:32:03;;;;;;;12.18;8.18;;;14.60;99.90;;;;;;5017747;28;20244;-82
2021/09/20 06:34:29;;;;;;;10.80;7.88;;;14.80;99.90;;;;;;5016343;28;20204;-86
2021/09/20 06:36:55;;;;;;;9.02;7.68;;;14.70;99.90;;;;;;5019005;28;20516;-85
2021/09/20 06:39:24;;;;;;;11.52;7.47;;;14.60;99.90;;;;;;5022946;28;20165;-85
2021/09/20 06:41:49;;;;;;;9.40;7.65;;;14.70;99.90;;;;;;5019733;28;20192;-87
2021/09/20 06:44:20;;;;;;;13.18;7.68;;;14.80;99.90;;;;;;5019481;28;20572;-85
2021/09/20 06:46:45;;;;;;;9.02;6.60;;;14.80;99.90;;;;;;5023415;28;20195;-86
2021/09/20 06:49:11;;;;;;;17.25;8.07;;;14.70;99.90;;;;;;5013450;28;20255;-87
2021/09/20 06:51:37;;;;;;;14.48;8.57;;;14.90;99.90;;;;;;5015006;28;20185;-84
2021/09/20 06:54:03;;;;;;;11.95;8.38;;;15.10;99.90;;;;;;5013106;28;20246;-83
2021/09/20 06:56:29;;;;;;;10.40;7.55;;;15.20;99.90;;;;;;5014111;28;20779;-85
2021/09/20 06:58:54;;;;;;;21.42;7.82;;;15.30;99.90;;;;;;5014547;28;20160;-86
2021/09/20 07:01:20;;;;;;;13.38;7.78;;;15.00;99.90;;;;;;5013118;28;20291;-86
2021/09/20 07:03:45;;;;;;;15.90;8.60;;;15.00;99.90;;;;;;5013887;28;20173;-85
2021/09/20 07:06:12;;;;;;;14.98;8.32;;;14.90;99.90;;;;;;5014061;28;20191;-84
2021/09/20 07:08:38;;;;;;;13.25;8.60;;;15.00;99.90;;;;;;5014302;28;20172;-85
2021/09/20 07:11:03;;;;;;;11.90;8.13;;;14.90;99.90;;;;;;5018196;28;20238;-85
2021/09/20 07:13:29;;;;;;;10.57;9.60;;;14.90;99.90;;;;;;5015085;28;20176;-83
2021/09/20 07:15:55;;;;;;;9.55;8.60;;;15.00;99.90;;;;;;5021389;28;20203;-86
2021/09/20 07:18:20;;;;;;;10.55;9.50;;;15.20;99.90;;;;;;5020435;28;20178;-87
2021/09/20 07:20:46;;;;;;;10.23;8.80;;;15.20;99.90;;;;;;5019301;28;20206;-85
2021/09/20 07:23:12;;;;;;;11.85;9.07;;;15.10;99.90;;;;;;5014435;28;20169;-84
2021/09/20 07:25:39;;;;;;;9.93;8.52;;;14.90;99.90;;;;;;5013554;28;20173;-86
2021/09/20 07:28:05;;;;;;;10.05;8.60;;;15.00;99.90;;;;;;5015112;28;20207;-86
2021/09/20 07:30:31;;;;;;;19.90;9.10;;;15.10;99.90;;;;;;5018512;28;20222;-83
2021/09/20 07:32:56;;;;;;;9.63;8.73;;;15.40;99.90;;;;;;5018759;28;20621;-86
2021/09/20 07:35:22;;;;;;;10.93;8.75;;;15.70;99.90;;;;;;5018133;28;20666;-85
2021/09/20 07:37:53;;;;;;;9.77;8.65;;;15.80;99.90;;;;;;5018222;28;20199;-87
2021/09/20 07:40:23;;;;;;;17.02;8.90;;;15.80;99.90;;;;;;5016416;28;20204;-86
2021/09/20 07:42:50;;;;;;;12.18;9.40;;;15.80;99.90;;;;;;5024751;28;20169;-84
2021/09/20 07:45:16;;;;;;;13.68;8.48;;;16.10;99.90;;;;;;5010057;28;20172;-85
2021/09/20 07:47:42;;;;;;;9.35;8.40;;;16.10;99.90;;;;;;5022383;28;20160;-79
2021/09/20 07:50:10;;;;;;;10.18;8.57;;;16.00;99.90;;;;;;5028731;28;20169;-85
2021/09/20 07:52:36;;;;;;;15.00;9.25;;;16.10;99.90;;;;;;5025315;28;20168;-86
2021/09/20 07:55:04;;;;;;;14.07;9.23;;;16.10;99.90;;;;;;5023268;28;20204;-85
2021/09/20 07:57:30;;;;;;;11.23;8.27;;;16.10;99.90;;;;;;5030012;28;20203;-83
2021/09/20 07:59:56;;;;;;;8.90;7.90;;;16.20;99.90;;;;;;5021100;28;20168;-85
2021/09/20 08:02:21;;;;;;;15.50;8.18;;;16.30;99.90;;;;;;5015746;28;20208;-87
2021/09/20 08:04:47;;;;;;;9.13;8.32;;;16.60;99.90;;;;;;5017791;28;20165;-84
2021/09/20 08:07:13;;;;;;;10.80;8.20;;;16.60;99.90;;;;;;5014809;28;20255;-81
2021/09/20 08:09:38;;;;;;;10.88;8.38;;;16.70;99.90;;;;;;5016479;28;20168;-82
2021/09/20 08:12:04;;;;;;;11.68;7.57;;;16.70;99.90;;;;;;5014381;28;20188;-82
2021/09/20 08:14:30;;;;;;;8.38;7.35;;;16.70;99.90;;;;;;5031090;28;20200;-81
2021/09/20 08:16:56;;;;;;;10.45;8.55;;;16.80;99.90;;;;;;5033171;28;20163;-81
2021/09/20 08:19:22;;;;;;;9.63;7.63;;;17.00;99.90;;;;;;5035580;28;20260;-82
2021/09/20 08:21:48;;;;;;;10.40;7.45;;;16.90;99.90;;;;;;5029785;28;20309;-81
2021/09/20 08:24:14;;;;;;;7.22;6.50;;;17.10;99.90;;;;;;5022887;28;20239;-79
2021/09/20 08:26:40;;;;;;;12.32;7.10;;;17.40;99.90;;;;;;5016088;28;20638;-79
2021/09/20 08:29:06;;;;;;;8.35;7.50;;;17.30;99.90;;;;;;5014927;28;20172;-78
2021/09/20 08:31:31;;;;;;;9.77;8.27;;;17.30;99.90;;;;;;5014155;28;20195;-80
2021/09/20 08:33:57;;;;;;;7.18;6.35;;;17.30;99.90;;;;;;5015603;28;20211;-82
2021/09/20 08:36:23;;;;;;;9.85;6.28;;;17.30;99.90;;;;;;5014011;28;20207;-82
2021/09/20 08:38:48;;;;;;;6.75;5.68;;;17.30;99.90;;;;;;5014019;28;20181;-81
2021/09/20 08:41:16;;;;;;;8.63;7.68;;;17.10;99.90;;;;;;5014831;28;20651;-80
2021/09/20 08:43:42;;;;;;;11.93;6.95;;;17.10;99.90;;;;;;5014220;28;20579;-80
2021/09/20 08:46:08;;;;;;;13.07;7.20;;;17.10;99.90;;;;;;5015427;28;20215;-82
2021/09/20 08:48:44;;;;;;;7.05;6.35;;;17.10;99.90;;;;;;5013853;28;20252;-80
2021/09/20 08:51:11;;;;;;;7.95;7.13;;;17.20;99.90;;;;;;5013569;28;20188;-82
2021/09/20 08:53:37;;;;;;;9.10;6.85;;;17.20;99.90;;;;;;5013852;28;20235;-81
2021/09/20 08:56:03;;;;;;;6.93;6.25;;;17.50;99.90;;;;;;5013566;28;20184;-82
2021/09/20 08:58:29;;;;;;;8.10;6.70;;;17.90;99.90;;;;;;5014843;28;20165;-82
2021/09/20 09:00:55;;;;;;;10.07;7.03;;;17.90;99.90;;;;;;5013197;28;20212;-81
2021/09/20 09:03:26;;;;;;;9.63;6.43;;;18.10;99.90;;;;;;5013664;28;20225;-82
2021/09/20 09:05:52;;;;;;;7.95;7.18;;;18.20;99.90;;;;;;5013861;28;20181;-82
2021/09/20 09:08:18;;;;;;;8.27;6.72;;;17.90;99.90;;;;;;5016247;28;20176;-82
2021/09/20 09:10:58;;;;;;;7.50;6.68;;;17.80;99.90;;;;;;5014665;28;20212;-82
2021/09/20 09:13:33;;;;;;;10.98;6.88;;;17.90;99.90;;;;;;5013389;28;20180;-82
2021/09/20 09:16:15;;;;;;;12.77;7.13;;;18.30;99.90;;;;;;5012993;28;20354;-82
2021/09/20 09:18:59;;;;;;;10.95;7.57;;;18.60;99.90;;;;;;5013538;28;20518;-80
2021/09/20 09:21:32;;;;;;;7.82;7.13;;;18.60;99.90;;;;;;5014319;28;20188;-81
2021/09/20 09:24:03;;;;;;;12.15;6.85;;;18.50;99.90;;;;;;5013381;28;20666;-82
2021/09/20 09:26:29;;;;;;;7.45;6.85;;;18.30;99.90;;;;;;5013314;28;20172;-81
2021/09/20 09:29:12;;;;;;;8.25;7.15;;;18.10;99.90;;;;;;5014256;28;20251;-82
2021/09/20 09:31:40;;;;;;;8.95;7.13;;;18.00;99.90;;;;;;5012468;28;20189;-81
2021/09/20 09:34:15;;;;;;;8.77;7.55;;;17.90;99.90;;;;;;5013771;28;20254;-83
2021/09/20 09:36:42;;;;;;;13.70;7.05;;;17.90;99.90;;;;;;5011783;28;20171;-80
2021/09/20 09:39:07;;;;;;;8.98;7.00;;;18.00;99.90;;;;;;5012644;28;20176;-82
2021/09/20 09:41:43;;;;;;;11.82;7.00;;;17.80;99.90;;;;;;5004192;28;20241;-83
2021/09/20 09:44:13;;;;;;;10.48;6.78;;;17.80;99.90;;;;;;5011351;28;20179;-82
2021/09/20 09:46:42;;;;;;;10.25;6.80;;;17.60;99.90;;;;;;5012072;28;20172;-80
2021/09/20 09:49:13;;;;;;;7.68;6.68;;;17.90;99.90;;;;;;5013608;28;20501;-81
2021/09/20 09:52:02;;;;;;;7.65;6.68;;;18.00;99.90;;;;;;5011860;28;20574;-82
2021/09/20 09:54:27;;;;;;;12.00;6.18;;;17.90;99.90;;;;;;5012469;28;20262;-82
2021/09/20 09:57:15;;;;;;;8.45;6.47;;;17.90;99.90;;;;;;5007779;28;20177;-82
2021/09/20 09:59:42;;;;;;;8.00;6.43;;;18.00;99.90;;;;;;5009687;28;20606;-82
2021/09/20 10:02:35;;;;;;;9.32;5.53;;;18.30;99.90;;;;;;5009381;28;20320;-83
2021/09/20 10:05:05;;;;;;;5.97;5.40;;;18.40;99.90;;;;;;5010605;28;20615;-82
2021/09/20 10:07:33;;;;;;;16.88;5.80;;;18.50;99.90;;;;;;5006727;28;20179;-82
2021/09/20 10:10:03;;;;;;;6.00;5.50;;;18.40;99.90;;;;;;5010952;28;20168;-82
2021/09/20 10:12:29;;;;;;;6.07;5.40;;;18.50;99.90;;;;;;5011820;28;20180;-81
2021/09/20 10:14:57;;;;;;;8.02;4.97;;;18.50;99.90;;;;;;5010825;28;20204;-81
2021/09/20 10:17:24;;;;;;;7.68;6.50;;;18.70;99.90;;;;;;5011783;28;20180;-81
2021/09/20 10:19:51;;;;;;;8.32;5.25;;;18.60;99.90;;;;;;5010961;28;20263;-82
2021/09/20 10:22:18;;;;;;;9.93;5.50;;;18.70;99.90;;;;;;5012380;28;20195;-82
2021/09/20 10:24:46;;;;;;;6.53;5.82;;;18.70;99.90;;;;;;5010723;28;20223;-82
2021/09/20 10:27:14;;;;;;;9.38;6.22;;;18.50;99.90;;;;;;5010579;28;20219;-86
2021/09/20 10:29:44;;;;;;;7.22;6.35;;;18.50;99.90;;;;;;5012072;28;20172;-81
2021/09/20 10:32:11;;;;;;;16.40;6.75;;;18.70;99.90;;;;;;5009975;28;20200;-77
2021/09/20 10:34:37;;;;;;;8.73;6.03;;;18.90;99.90;;;;;;5012451;28;20212;-78
2021/09/20 10:37:12;;;;;;;11.90;7.43;;;19.00;99.90;;;;;;5011291;28;20655;-79
2021/09/20 10:40:00;;;;;;;8.23;7.25;;;18.80;99.90;;;;;;4991450;28;20168;-79
2021/09/20 10:42:35;;;;;;;8.75;6.70;;;18.90;99.90;;;;;;4990645;28;20275;-78
2021/09/20 10:45:08;;;;;;;10.90;7.50;;;19.20;99.90;;;;;;4992680;28;20176;-79
2021/09/20 10:47:42;;;;;;;14.27;7.50;;;19.40;99.90;;;;;;4996616;28;20203;-80
2021/09/20 10:50:08;;;;;;;11.82;7.47;;;19.70;99.90;;;;;;5012232;28;20165;-79
2021/09/20 10:52:34;;;;;;;13.15;6.43;;;19.80;99.90;;;;;;4994626;28;20581;-78
2021/09/20 10:55:03;;;;;;;12.48;7.93;;;20.00;99.90;;;;;;5012052;28;20287;-77
2021/09/20 10:57:29;;;;;;;16.75;6.15;;;20.00;99.90;;;;;;5011700;23;20235;-79
2021/09/20 11:00:25;;;;;;;8.60;7.00;;;20.00;99.90;;;;;;4990745;28;20169;-79
2021/09/20 11:02:51;;;;;;;7.15;6.45;;;19.80;99.90;;;;;;4974330;28;20170;-80
2021/09/20 11:05:25;;;;;;;7.47;6.30;;;19.50;99.90;;;;;;4979173;28;20176;-81
2021/09/20 11:07:51;;;;;;;8.35;5.93;;;19.30;99.90;;;;;;4977683;28;20170;-79
2021/09/20 11:10:29;;;;;;;18.13;5.95;;;19.10;99.90;;;;;;4979685;28;20175;-78
2021/09/20 11:13:03;;;;;;;10.75;7.03;;;19.10;99.90;;;;;;4979727;28;20176;-79
2021/09/20 11:15:40;;;;;;;18.05;6.65;;;19.30;99.90;;;;;;4978920;28;20210;-81
2021/09/20 11:18:07;;;;;;;10.38;7.28;;;19.20;99.90;;;;;;4979767;28;20170;-80
2021/09/20 11:20:35;;;;;;;12.70;6.68;;;19.10;99.90;;;;;;4979493;28;20193;-79
2021/09/20 11:23:19;;;;;;;13.60;7.85;;;19.10;99.90;;;;;;4979362;28;20161;-80
2021/09/20 11:26:05;;;;;;;17.20;7.10;;;19.40;99.90;;;;;;4977418;28;20240;-80
2021/09/20 11:28:32;;;;;;;14.05;6.63;;;19.60;99.90;;;;;;4979672;28;20200;-80
2021/09/20 11:30:59;;;;;;;7.65;5.70;;;19.90;99.90;;;;;;4980173;28;20189;-82
2021/09/20 11:33:42;;;;;;;7.05;6.35;;;19.90;99.90;;;;;;4979621;28;20174;-81
2021/09/20 11:36:21;;;;;;;11.88;6.40;;;19.90;99.90;;;;;;4978878;28;20188;-82
2021/09/20 11:38:48;;;;;;;6.90;5.80;;;20.10;99.90;;;;;;4978359;28;20481;-81
2021/09/20 11:41:18;;;;;;;7.22;6.47;;;20.10;99.90;;;;;;4979675;28;20197;-79
2021/09/20 11:43:43;;;;;;;7.05;5.75;;;20.00;99.90;;;;;;4979654;28;20170;-79
2021/09/20 11:46:09;;;;;;;6.82;6.13;;;20.20;99.90;;;;;;4979491;28;20197;-80
2021/09/20 11:48:35;;;;;;;9.45;7.20;;;20.00;99.90;;;;;;4979653;28;20181;-79
2021/09/20 11:51:02;;;;;;;13.52;7.68;;;19.90;99.90;;;;;;4978898;28;20244;-80
2021/09/20 11:53:31;;;;;;;8.23;7.10;;;19.70;99.90;;;;;;4970808;28;20220;-83
2021/09/20 11:55:56;;;;;;;15.15;7.25;;;19.60;99.90;;;;;;4979369;28;20260;-81
2021/09/20 11:58:22;;;;;;;8.15;7.07;;;19.40;99.90;;;;;;4974942;28;20280;-84
2021/09/20 12:00:49;;;;;;;7.20;6.50;;;19.50;99.90;;;;;;4977585;28;20599;-81
2021/09/20 12:03:18;;;;;;;10.68;6.72;;;19.50;99.90;;;;;;4978083;28;20170;-79
2021/09/20 12:05:46;;;;;;;6.90;6.22;;;19.60;99.90;;;;;;4977224;28;20674;-80
2021/09/20 12:08:24;;;;;;;8.60;7.47;;;19.70;99.90;;;;;;4977374;28;20212;-79
2021/09/20 12:10:56;;;;;;;10.38;6.45;;;19.80;99.90;;;;;;4978793;28;20194;-79
2021/09/20 12:13:31;;;;;;;9.73;6.07;;;19.80;99.90;;;;;;4977672;28;20253;-79
2021/09/20 12:16:07;;;;;;;6.80;6.10;;;19.70;99.90;;;;;;4975730;28;20184;-79
2021/09/20 12:18:32;;;;;;;8.90;6.70;;;19.70;99.90;;;;;;4975615;28;20173;-78
2021/09/20 12:20:59;;;;;;;8.68;6.60;;;19.80;99.90;;;;;;4976207;28;20188;-78
2021/09/20 12:23:28;;;;;;;6.38;5.78;;;20.00;99.90;;;;;;4974503;28;20192;-79
2021/09/20 12:25:56;;;;;;;7.88;7.18;;;20.20;99.90;;;;;;4975358;28;20538;-78
2021/09/20 12:28:28;;;;;;;7.07;6.30;;;20.30;99.90;;;;;;4976265;28;20166;-78
2021/09/20 12:31:20;;;;;;;7.50;5.85;;;20.00;99.90;;;;;;4975877;28;20186;-78
2021/09/20 12:33:58;;;;;;;8.82;6.72;;;20.20;99.90;;;;;;4968165;28;20650;-79
2021/09/20 12:36:34;;;;;;;10.75;7.38;;;20.30;99.90;;;;;;4975160;28;20166;-78
2021/09/20 12:39:20;;;;;;;7.25;6.30;;;20.20;99.90;;;;;;4975325;28;20165;-86
2021/09/20 12:42:03;;;;;;;9.80;6.50;;;20.20;99.90;;;;;;4975890;28;20193;-79
2021/09/20 12:44:44;;;;;;;5.93;5.40;;;20.10;99.90;;;;;;4974554;28;20188;-78
2021/09/20 12:47:30;;;;;;;8.65;5.78;;;20.30;99.90;;;;;;4974054;28;20244;-78